• pl
  • eng

Awiacja
WIADOMOŚCI
ostatnia aktualizacja: 26.09.2019 09:57
Uprzejmie informujemy, że od dnia 2.09.2019 jest dostępna w formie testowej prognoza GAFOR. Prosimy o przesyłanie na adres gafor@imgw.pl uwag i sugestii, które przyczynią się do rozwoju produktu.
TAF FT 04:30 24.10.2019
  • WIND
  • SIGNIFICANT EURO
  • SIGNIFICANT
  • SIGMET
  • AIRMET
  • TAF FC
  • TAF FT
  • METAR GG30
  • METAR GG00


TAF EPBY 232330Z 2400/2424 10005KT 1500 BR BKN002
TEMPO 2400/2409 0800 FG OVC001
PROB40 2400/2407 0400 FG
BECMG 2407/2410 16010KT 8000 NSC
TEMPO 2409/2412 BKN005
BECMG 2418/2421 22005KT
TEMPO 2418/2424 3000 BR BKN004=

TAF EPGD 232330Z 2400/2424 14006KT CAVOK
BECMG 2400/2403 3000 BR
TEMPO 2401/2409 0800 FG BKN002
PROB40 2402/2408 0400 FG OVC001
BECMG 2408/2411 8000
TEMPO 2409/2417 BKN005
TEMPO 2417/2424 3000 BR BKN004=

TAF EPKK 240230Z 2403/2503 06005KT 0700 FG BKN004
TEMPO 2403/2406 0100 FG OVC001
BECMG 2406/2409 2500 BR BKN007
BECMG 2409/2412 7000 NSC
BECMG 2416/2419 3000 BR BKN007
PROB40 TEMPO 2420/2503 0500 FG=

TAF AMD EPKT 240206Z 2402/2424 09006KT 2500 BR NSC
PROB40 TEMPO 2402/2405 0400 FG BKN004
BECMG 2405/2407 7000
BECMG 2418/2421 3000 BR
PROB30 TEMPO 2421/2424 0500 FG BKN007=

TAF EPLL 232330Z 2400/2424 11004KT 0400 FG OVC002
TEMPO 2400/2406 0200 FG BKN001
BECMG 2407/2409 4000 BR BKN007
BECMG 2409/2411 CAVOK=

TAF EPMO 232330Z 2400/2424 11004KT 0400 FG OVC001
TEMPO 2400/2403 1000 BR BKN003
BECMG 2407/2409 4500 BR BKN007
BECMG 2409/2411 CAVOK=

TAF EPPO 232330Z 2400/2424 11010KT 0800 FG BKN002
TEMPO 2400/2408 0300 FG OVC001
BECMG 2409/2412 CAVOK
BECMG 2419/2421 VRB02KT=

TAF COR EPRZ 232335Z 2400/2424 06005KT 0600 FG NSC
TEMPO 2400/2407 0200 FG BKN002
BECMG 2407/2410 4000 BR NSC
TEMPO 2412/2418 7000=

TAF AMD EPRZ 240232Z 2402/2424 12005KT 3000 BR NSC
TEMPO 2402/2406 1200 BR BKN007
PROB30 TEMPO 2402/2406 0400 FG BKN003
BECMG 2406/2409 7000
PROB40 TEMPO 2420/2424 3000 BR BKN007=

TAF EPSC 232330Z 2400/2424 10006KT 8000 NSC
BECMG 2400/2403 3000 BR
TEMPO 2401/2409 0800 FG BKN002
PROB40 2402/2408 0400 FG OVC001
BECMG 2407/2410 16010KT BKN005
TEMPO 2409/2424 BKN003
BECMG 2418/2421 22005KT
PROB40 TEMPO 2418/2424 3000 BR=

TAF EPWA 240230Z 2403/2503 13008KT 0800 FG NSC
TEMPO 2403/2407 0500 FG OVC002
PROB40 TEMPO 2403/2406 0200 FG OVC001
BECMG 2406/2408 2500 BR BKN002 OVC005
BECMG 2408/2410 4500 BR
BECMG 2410/2413 CAVOK
PROB40 2421/2503 VRB02KT 0800 FG BKN002=

TAF EPWR 240230Z 2403/2503 13007KT 0600 FG OVC002
TEMPO 2403/2406 0100 FG OVC001
BECMG 2408/2411 CAVOK
BECMG 2411/2414 19010KT
BECMG 2419/2421 VRB02KT=
Awiacja.imgw.pl jest pogodowym serwisem informacyjnym
Instytutu Meteorologii i Gospodarki Wodnej Państwowego Instytutu Badawczego.
Copyright IMGW PIB 2009-2019© Wszelkie prawa zastrzeżone.